createdAt,value
2023-02-28T00:00:51.392Z,69.39
2023-02-28T00:03:54.895Z,69.58
2023-02-28T00:06:57.584Z,69.69
2023-02-28T00:10:13.437Z,69.86
2023-02-28T00:13:16.137Z,69.94
2023-02-28T00:16:24.026Z,70.24
2023-02-28T00:19:32.949Z,70.63
2023-02-28T00:22:36.816Z,70.67
2023-02-28T00:25:39.573Z,71.54
2023-02-28T00:28:42.359Z,71.51
2023-02-28T00:31:46.451Z,71.71
2023-02-28T00:34:51.532Z,71.87
2023-02-28T00:37:54.265Z,71.97
2023-02-28T00:40:57.077Z,71.92
2023-02-28T00:44:03.139Z,72.14
2023-02-28T00:47:08.212Z,72.52
2023-02-28T00:50:12.349Z,72.35
2023-02-28T00:53:15.773Z,72.54
2023-02-28T00:56:32.570Z,72.79
2023-02-28T00:59:35.267Z,72.70
2023-02-28T01:02:39.793Z,73.20
2023-02-28T01:05:43.000Z,73.58
2023-02-28T01:08:45.792Z,73.79
2023-02-28T01:11:55.952Z,73.94
2023-02-28T01:14:58.920Z,73.83
2023-02-28T01:18:03.135Z,74.27
2023-02-28T01:21:07.085Z,74.49
2023-02-28T01:24:12.933Z,74.49
2023-02-28T01:27:22.910Z,74.61
2023-02-28T01:30:25.596Z,74.74
2023-02-28T01:33:32.328Z,74.70
2023-02-28T01:37:00.545Z,74.95
2023-02-28T01:40:10.760Z,74.85
2023-02-28T01:43:23.201Z,75.01
2023-02-28T01:46:29.504Z,75.12
2023-02-28T01:49:33.835Z,75.43
2023-02-28T01:52:36.832Z,75.42
2023-02-28T01:55:40.963Z,75.78
2023-02-28T01:58:50.907Z,75.41
2023-02-28T02:01:54.426Z,75.36
2023-02-28T02:05:03.090Z,75.06
2023-02-28T02:08:11.930Z,74.98
2023-02-28T02:11:19.071Z,75.01
2023-02-28T02:14:39.749Z,75.22
2023-02-28T02:17:46.807Z,75.03
2023-02-28T02:21:35.617Z,75.14
2023-02-28T02:25:08.065Z,75.10
2023-02-28T02:28:30.701Z,75.11
2023-02-28T02:31:56.209Z,75.16
2023-02-28T02:35:09.223Z,75.38
2023-02-28T02:38:22.008Z,75.36
2023-02-28T02:41:30.475Z,75.42
2023-02-28T02:44:41.903Z,75.30
2023-02-28T02:47:45.945Z,75.18
2023-02-28T02:50:53.449Z,75.18
2023-02-28T02:54:00.891Z,75.30
2023-02-28T02:57:07.263Z,75.24
2023-02-28T03:00:12.363Z,75.20
2023-02-28T03:03:21.711Z,75.43
2023-02-28T03:06:26.195Z,75.48
2023-02-28T03:09:31.593Z,75.47
2023-02-28T03:12:51.525Z,75.61
2023-02-28T03:16:12.168Z,75.61
2023-02-28T03:19:34.571Z,75.58
2023-02-28T03:23:01.920Z,75.63
2023-02-28T03:26:09.874Z,75.69
2023-02-28T03:29:18.338Z,75.77
2023-02-28T03:32:26.969Z,76.06
2023-02-28T03:35:34.749Z,76.07
2023-02-28T03:38:42.405Z,76.56
2023-02-28T03:41:50.542Z,76.46
2023-02-28T03:44:57.471Z,76.57
2023-02-28T03:48:05.946Z,76.50
2023-02-28T03:51:10.996Z,76.77
2023-02-28T03:54:21.473Z,76.86
2023-02-28T03:57:29.692Z,77.07
2023-02-28T04:00:39.264Z,76.96
2023-02-28T04:03:42.044Z,77.31
2023-02-28T04:06:45.591Z,77.29
2023-02-28T04:09:49.667Z,77.30
2023-02-28T04:12:52.354Z,77.37
2023-02-28T04:15:57.239Z,77.28
2023-02-28T04:19:03.167Z,77.20
2023-02-28T04:22:05.903Z,77.55
2023-02-28T04:25:10.610Z,77.63
2023-02-28T04:28:13.267Z,77.81
2023-02-28T04:31:16.005Z,78.06
2023-02-28T04:34:19.961Z,77.90
2023-02-28T04:37:36.588Z,77.88
2023-02-28T04:40:40.590Z,78.18
2023-02-28T04:43:43.597Z,78.34
2023-02-28T04:46:52.302Z,78.42
2023-02-28T04:49:57.372Z,78.43
2023-02-28T04:53:07.402Z,78.50
2023-02-28T04:56:14.582Z,78.47
2023-02-28T04:59:20.035Z,78.33
2023-02-28T05:02:25.893Z,78.38
2023-02-28T05:05:28.685Z,78.31
2023-02-28T05:08:31.396Z,78.77
2023-02-28T05:11:36.895Z,78.72
2023-02-28T05:14:39.584Z,78.67
2023-02-28T05:17:42.315Z,78.75
2023-02-28T05:20:53.108Z,78.65
2023-02-28T05:24:00.920Z,78.69
2023-02-28T05:27:05.376Z,78.97
2023-02-28T05:30:12.431Z,78.91
2023-02-28T05:33:15.576Z,79.08
2023-02-28T05:36:18.323Z,79.21
2023-02-28T05:39:23.523Z,79.05
2023-02-28T05:42:28.509Z,79.16
2023-02-28T05:45:34.314Z,78.87
2023-02-28T05:48:38.960Z,79.15
2023-02-28T05:51:42.451Z,79.38
2023-02-28T05:54:45.411Z,79.32
2023-02-28T05:57:49.454Z,79.59
2023-02-28T06:00:52.167Z,79.53
2023-02-28T06:03:54.849Z,79.60
2023-02-28T06:06:58.793Z,79.60
2023-02-28T06:10:01.734Z,79.56
2023-02-28T06:13:07.014Z,79.54
2023-02-28T06:16:12.360Z,79.58
2023-02-28T06:19:16.066Z,79.58
2023-02-28T06:22:18.758Z,79.62
2023-02-28T06:25:22.003Z,79.65
2023-02-28T06:28:28.640Z,79.44
2023-02-28T06:31:31.694Z,79.57
2023-02-28T06:34:40.192Z,79.40
2023-02-28T06:37:42.934Z,79.57
2023-02-28T06:40:46.286Z,79.41
2023-02-28T06:43:50.558Z,79.33
2023-02-28T06:46:53.363Z,79.56
2023-02-28T06:50:03.374Z,79.50
2023-02-28T06:53:09.482Z,79.35
2023-02-28T06:56:13.881Z,79.27
2023-02-28T06:59:18.178Z,79.32
2023-02-28T07:02:20.846Z,79.32
2023-02-28T07:05:23.996Z,79.24
2023-02-28T07:08:27.705Z,79.18
2023-02-28T07:11:36.485Z,79.08
2023-02-28T07:14:40.616Z,79.02
2023-02-28T07:17:43.333Z,78.66
2023-02-28T07:20:45.985Z,78.71
2023-02-28T07:23:52.360Z,78.55
2023-02-28T07:26:55.061Z,78.22
2023-02-28T07:30:06.184Z,76.28
2023-02-28T07:33:09.352Z,75.89
2023-02-28T07:36:16.150Z,75.87
2023-02-28T07:39:21.030Z,75.74
2023-02-28T07:42:23.712Z,75.09
2023-02-28T07:45:27.909Z,74.44
2023-02-28T07:48:30.743Z,73.45
2023-02-28T07:51:33.816Z,72.55
2023-02-28T07:54:36.627Z,72.35
2023-02-28T07:57:39.708Z,72.08
2023-02-28T08:00:43.754Z,72.25
2023-02-28T08:03:46.449Z,71.26
2023-02-28T08:06:49.266Z,70.29
2023-02-28T08:09:51.926Z,69.81
2023-02-28T08:12:57.811Z,70.68
2023-02-28T08:16:03.765Z,68.25
2023-02-28T08:19:06.479Z,68.18
2023-02-28T08:22:12.988Z,66.74
2023-02-28T08:25:22.256Z,64.99
2023-02-28T08:28:27.262Z,65.72
2023-02-28T08:31:32.020Z,65.24
2023-02-28T08:34:35.079Z,65.29
2023-02-28T08:37:37.882Z,63.56
2023-02-28T08:40:48.324Z,63.26
2023-02-28T08:43:54.570Z,63.61
2023-02-28T08:46:59.353Z,63.70
2023-02-28T08:50:02.012Z,62.40
2023-02-28T08:53:14.349Z,60.77
2023-02-28T08:56:24.082Z,60.95
2023-02-28T08:59:26.820Z,59.86
2023-02-28T09:02:30.851Z,59.93
2023-02-28T09:05:34.183Z,59.32
2023-02-28T09:08:44.462Z,58.60
2023-02-28T09:11:49.164Z,59.01
2023-02-28T09:14:52.437Z,59.82
2023-02-28T09:17:56.463Z,58.65
2023-02-28T09:20:59.744Z,58.07
2023-02-28T09:24:04.558Z,55.21
2023-02-28T09:27:10.033Z,56.44
2023-02-28T09:30:14.472Z,56.43
2023-02-28T09:33:22.846Z,53.86
2023-02-28T09:36:38.179Z,54.87
2023-02-28T09:39:46.368Z,54.34
2023-02-28T09:42:51.161Z,55.17
2023-02-28T09:45:59.593Z,55.51
2023-02-28T09:49:07.077Z,52.05
2023-02-28T09:52:14.059Z,53.66
2023-02-28T09:55:24.050Z,54.08
2023-02-28T09:58:36.764Z,51.33
2023-02-28T10:01:45.777Z,51.55
2023-02-28T10:04:58.731Z,51.90
2023-02-28T10:08:15.571Z,50.57
2023-02-28T10:11:21.669Z,50.84
2023-02-28T10:14:31.133Z,48.43
2023-02-28T10:17:54.866Z,49.29
2023-02-28T10:21:05.975Z,47.15
2023-02-28T10:24:22.442Z,48.89
2023-02-28T10:27:27.101Z,49.42
2023-02-28T10:30:37.741Z,47.93
2023-02-28T10:33:40.616Z,46.58
2023-02-28T10:36:45.710Z,47.17
2023-02-28T10:39:48.902Z,48.79
2023-02-28T10:42:57.986Z,49.42
2023-02-28T10:46:05.061Z,48.67
2023-02-28T10:49:14.799Z,49.40
2023-02-28T10:52:36.603Z,49.30
2023-02-28T10:55:40.342Z,49.87
2023-02-28T10:58:50.401Z,49.76
2023-02-28T11:01:56.596Z,48.73
2023-02-28T11:04:59.579Z,47.58
2023-02-28T11:08:12.216Z,46.47
2023-02-28T11:11:15.109Z,47.38
2023-02-28T11:14:23.018Z,46.14
2023-02-28T11:17:28.583Z,46.31
2023-02-28T11:20:34.360Z,46.15
2023-02-28T11:23:42.409Z,46.69
2023-02-28T11:26:47.826Z,45.97
2023-02-28T11:29:50.498Z,45.89
2023-02-28T11:32:54.542Z,44.90
2023-02-28T11:36:03.216Z,43.55
2023-02-28T11:39:14.352Z,44.21
2023-02-28T11:42:36.944Z,44.22
2023-02-28T11:45:54.029Z,44.82
2023-02-28T11:49:04.458Z,43.43
2023-02-28T11:52:23.057Z,44.20
2023-02-28T11:55:29.769Z,43.83
2023-02-28T11:58:42.074Z,42.81
2023-02-28T12:02:08.308Z,42.93
2023-02-28T12:05:27.654Z,43.02
2023-02-28T12:09:05.335Z,42.92
2023-02-28T12:12:25.880Z,44.24
2023-02-28T12:15:53.746Z,43.83
2023-02-28T12:19:18.063Z,44.38
2023-02-28T12:22:44.287Z,43.46
2023-02-28T12:25:57.885Z,43.04
2023-02-28T12:29:10.124Z,43.12
2023-02-28T12:32:17.818Z,42.92
2023-02-28T12:35:24.895Z,41.59
2023-02-28T12:38:31.573Z,42.58
2023-02-28T12:42:03.605Z,41.91
2023-02-28T12:45:21.777Z,42.16
2023-02-28T12:48:31.456Z,41.89
2023-02-28T12:51:37.194Z,42.55
2023-02-28T12:54:47.153Z,43.30
2023-02-28T12:58:00.312Z,43.54
2023-02-28T13:01:38.482Z,42.94
2023-02-28T13:05:05.978Z,43.23
2023-02-28T13:08:32.895Z,43.44
2023-02-28T13:11:42.182Z,43.68
2023-02-28T13:14:45.472Z,44.19
2023-02-28T13:17:52.716Z,43.71
2023-02-28T13:20:57.311Z,44.71
2023-02-28T13:24:03.129Z,44.70
2023-02-28T13:27:44.884Z,44.10
2023-02-28T13:31:07.737Z,44.58
2023-02-28T13:34:18.373Z,43.97
2023-02-28T13:37:39.204Z,44.11
2023-02-28T13:40:41.932Z,44.31
2023-02-28T13:44:03.377Z,43.65
2023-02-28T13:47:29.726Z,44.16
2023-02-28T13:50:38.681Z,42.33
2023-02-28T13:54:05.635Z,43.11
2023-02-28T13:57:38.358Z,43.29
2023-02-28T14:01:01.662Z,43.15
2023-02-28T14:04:35.517Z,43.47
2023-02-28T14:07:51.373Z,43.86
2023-02-28T14:11:05.981Z,43.94
2023-02-28T14:14:53.034Z,43.82
2023-02-28T14:17:56.914Z,42.63
2023-02-28T14:21:11.649Z,43.45
2023-02-28T14:24:45.556Z,43.18
2023-02-28T14:27:55.330Z,43.29
2023-02-28T14:31:08.694Z,43.43
2023-02-28T14:34:34.406Z,43.12
2023-02-28T14:37:43.124Z,43.65
2023-02-28T14:40:49.812Z,44.09
2023-02-28T14:43:55.998Z,44.45
2023-02-28T14:47:00.186Z,43.58
2023-02-28T14:50:06.022Z,43.88
2023-02-28T14:53:19.885Z,43.18
2023-02-28T14:56:26.368Z,43.55
2023-02-28T14:59:31.759Z,43.87
2023-02-28T15:02:37.421Z,43.67
2023-02-28T15:05:40.140Z,42.72
2023-02-28T15:08:42.918Z,42.80
2023-02-28T15:11:50.725Z,41.75
2023-02-28T15:14:53.463Z,42.52
2023-02-28T15:17:58.914Z,43.05
2023-02-28T15:21:07.123Z,43.08
2023-02-28T15:24:15.086Z,42.53
2023-02-28T15:27:23.874Z,43.16
2023-02-28T15:30:29.728Z,43.63
2023-02-28T15:33:34.385Z,42.83
2023-02-28T15:36:38.317Z,43.12
2023-02-28T15:39:45.985Z,42.51
2023-02-28T15:43:07.084Z,42.55
2023-02-28T15:46:12.058Z,43.17
2023-02-28T15:49:21.506Z,43.32
2023-02-28T15:52:29.560Z,42.74
2023-02-28T15:55:32.528Z,43.11
2023-02-28T15:58:37.561Z,43.47
2023-02-28T16:01:41.262Z,43.10
2023-02-28T16:05:02.966Z,43.19
2023-02-28T16:08:16.411Z,43.61
2023-02-28T16:11:20.747Z,43.21
2023-02-28T16:14:27.862Z,43.68
2023-02-28T16:17:34.806Z,43.72
2023-02-28T16:20:37.492Z,44.16
2023-02-28T16:23:40.194Z,43.97
2023-02-28T16:26:47.142Z,44.21
2023-02-28T16:29:52.715Z,44.77
2023-02-28T16:32:58.548Z,44.02
2023-02-28T16:36:02.097Z,44.82
2023-02-28T16:39:07.311Z,45.42
2023-02-28T16:42:16.409Z,45.03
2023-02-28T16:45:23.796Z,44.89
2023-02-28T16:48:26.978Z,45.26
2023-02-28T16:51:30.205Z,45.53
2023-02-28T16:54:33.723Z,45.41
2023-02-28T16:57:36.717Z,45.80
2023-02-28T17:00:40.722Z,46.08
2023-02-28T17:03:45.936Z,46.69
2023-02-28T17:06:48.653Z,46.62
2023-02-28T17:09:53.484Z,46.97
2023-02-28T17:13:06.013Z,47.15
2023-02-28T17:16:23.408Z,47.40
2023-02-28T17:19:26.301Z,47.69
2023-02-28T17:22:29.032Z,47.89
2023-02-28T17:25:32.309Z,48.68
2023-02-28T17:28:35.317Z,49.33
2023-02-28T17:31:41.105Z,49.97
2023-02-28T17:34:44.893Z,50.64
2023-02-28T17:37:47.738Z,51.93
2023-02-28T17:40:51.042Z,52.39
2023-02-28T17:43:54.087Z,52.50
2023-02-28T17:46:58.528Z,52.67
2023-02-28T17:50:01.202Z,53.28
2023-02-28T17:53:03.960Z,53.87
2023-02-28T17:56:07.774Z,53.95
2023-02-28T17:59:11.957Z,54.27
2023-02-28T18:02:16.870Z,54.28
2023-02-28T18:05:20.631Z,54.71
2023-02-28T18:08:23.348Z,55.14
2023-02-28T18:11:27.065Z,55.57
2023-02-28T18:14:30.142Z,55.93
2023-02-28T18:17:34.563Z,57.09
2023-02-28T18:20:38.024Z,57.14
2023-02-28T18:23:47.754Z,57.39
2023-02-28T18:26:51.384Z,57.87
2023-02-28T18:29:54.271Z,58.25
2023-02-28T18:32:59.275Z,58.55
2023-02-28T18:36:02.073Z,58.92
2023-02-28T18:39:05.835Z,58.93
2023-02-28T18:42:08.887Z,59.39
2023-02-28T18:45:14.073Z,59.24
2023-02-28T18:48:19.658Z,59.47
2023-02-28T18:51:25.213Z,59.46
2023-02-28T18:54:27.894Z,59.80
2023-02-28T18:57:36.667Z,60.01
2023-02-28T19:00:39.860Z,60.41
2023-02-28T19:03:44.485Z,60.72
2023-02-28T19:06:47.349Z,61.22
2023-02-28T19:09:56.169Z,61.69
2023-02-28T19:12:58.769Z,61.87
2023-02-28T19:16:05.331Z,62.16
2023-02-28T19:19:09.315Z,62.11
2023-02-28T19:22:12.907Z,62.27
2023-02-28T19:25:15.586Z,62.61
2023-02-28T19:28:18.409Z,62.85
2023-02-28T19:31:23.283Z,63.17
2023-02-28T19:34:27.909Z,63.34
2023-02-28T19:37:34.691Z,63.54
2023-02-28T19:40:37.417Z,63.55
2023-02-28T19:43:40.609Z,63.77
2023-02-28T19:46:44.475Z,64.00
2023-02-28T19:49:48.487Z,64.30
2023-02-28T19:52:51.160Z,64.28
2023-02-28T19:55:54.416Z,64.42
2023-02-28T19:58:58.754Z,64.63
2023-02-28T20:02:02.054Z,64.98
2023-02-28T20:05:10.399Z,65.11
2023-02-28T20:08:13.969Z,65.39
2023-02-28T20:11:18.132Z,65.69
2023-02-28T20:14:23.184Z,65.82
2023-02-28T20:17:25.897Z,65.80
2023-02-28T20:20:36.338Z,66.01
2023-02-28T20:23:39.577Z,66.25
2023-02-28T20:26:42.492Z,66.48
2023-02-28T20:29:50.391Z,66.60
2023-02-28T20:32:54.637Z,66.65
2023-02-28T20:36:03.656Z,67.01
2023-02-28T20:39:06.420Z,67.16
2023-02-28T20:42:09.057Z,67.25
2023-02-28T20:45:12.065Z,67.40
2023-02-28T20:48:14.915Z,67.50
2023-02-28T20:51:19.726Z,67.59
2023-02-28T20:54:22.442Z,67.93
2023-02-28T20:57:25.442Z,68.43
2023-02-28T21:00:28.687Z,68.81
2023-02-28T21:03:32.129Z,68.80
2023-02-28T21:06:39.965Z,68.66
2023-02-28T21:09:42.933Z,68.65
2023-02-28T21:12:46.351Z,68.67
2023-02-28T21:15:49.536Z,68.87
2023-02-28T21:18:54.154Z,69.04
2023-02-28T21:21:59.038Z,69.25
2023-02-28T21:25:04.038Z,69.25
2023-02-28T21:28:08.098Z,69.42
2023-02-28T21:31:13.889Z,69.49
2023-02-28T21:34:17.074Z,69.68
2023-02-28T21:37:24.850Z,69.80
2023-02-28T21:40:28.131Z,69.82
2023-02-28T21:43:31.180Z,69.97
2023-02-28T21:46:35.259Z,69.92
2023-02-28T21:49:39.181Z,69.91
2023-02-28T21:52:45.052Z,70.02
2023-02-28T21:55:50.871Z,70.11
2023-02-28T21:59:00.161Z,70.46
2023-02-28T22:02:05.451Z,70.38
2023-02-28T22:05:10.889Z,70.27
2023-02-28T22:08:15.028Z,70.45
2023-02-28T22:11:18.401Z,70.54
2023-02-28T22:14:27.267Z,70.20
2023-02-28T22:17:30.038Z,70.45
2023-02-28T22:20:35.771Z,70.65
2023-02-28T22:23:47.963Z,70.77
2023-02-28T22:26:51.093Z,70.87
2023-02-28T22:29:56.019Z,70.92
2023-02-28T22:32:58.722Z,70.91
2023-02-28T22:36:06.421Z,70.90
2023-02-28T22:39:11.396Z,71.01
2023-02-28T22:42:14.125Z,71.24
2023-02-28T22:45:22.008Z,71.48
2023-02-28T22:48:24.756Z,71.92
2023-02-28T22:51:28.259Z,71.77
2023-02-28T22:54:32.331Z,71.76
2023-02-28T22:57:41.123Z,71.79
2023-02-28T23:00:44.060Z,72.28
2023-02-28T23:03:47.061Z,72.36
2023-02-28T23:06:49.823Z,72.50
2023-02-28T23:10:00.036Z,72.43
2023-02-28T23:13:03.378Z,72.28
2023-02-28T23:16:09.998Z,72.43
2023-02-28T23:19:15.556Z,72.39
2023-02-28T23:22:18.352Z,72.54
2023-02-28T23:25:25.016Z,72.79
2023-02-28T23:28:31.303Z,72.82
2023-02-28T23:31:34.852Z,72.62
2023-02-28T23:34:40.685Z,73.01
2023-02-28T23:37:43.531Z,72.82
2023-02-28T23:40:53.691Z,72.97
2023-02-28T23:43:56.441Z,73.33
2023-02-28T23:46:59.223Z,73.39
2023-02-28T23:50:01.975Z,73.29
2023-02-28T23:53:06.113Z,73.60
2023-02-28T23:56:15.165Z,74.02
2023-02-28T23:59:18.034Z,74.53
